Time;durP1;ratioP1;P1;durP2;ratioP2;P2;SDS_P1;SDS_P2;PMS_P1;PMS_P2;Temp;Humidity;BMP_temperature;BMP_pressure;BME280_temperature;BME280_humidity;BME280_pressure;Samples;Min_cycle;Max_cycle;Signal;HPM_P1;HPM_P2
2023/05/02 00:02:03;;;;;;;1.30;1.10;;;;;;;;;;4963929;28;59246;-70
2023/05/02 00:04:28;;;;;;;1.43;1.33;;;;;;;;;;4967294;28;59269;-71
2023/05/02 00:06:53;;;;;;;1.43;1.33;;;;;;;;;;4968902;28;59613;-72
2023/05/02 00:09:19;;;;;;;4.13;1.33;;;;;;;;;;4970597;28;60024;-72
2023/05/02 00:11:44;;;;;;;0.70;0.70;;;;;;;;;;4962904;28;59535;-71
2023/05/02 00:14:09;;;;;;;1.20;1.00;;;;;;;;;;4964498;28;59155;-71
2023/05/02 00:16:34;;;;;;;1.13;0.80;;;;;;;;;;4965744;28;59802;-71
2023/05/02 00:19:00;;;;;;;1.13;1.02;;;;;;;;;;4967961;28;59514;-71
2023/05/02 00:21:28;;;;;;;2.80;1.00;;;;;;;;;;4970264;28;59304;-71
2023/05/02 00:23:53;;;;;;;1.35;1.25;;;;;;;;;;4967058;28;59263;-71
2023/05/02 00:26:18;;;;;;;0.93;0.90;;;;;;;;;;4971592;28;59141;-70
2023/05/02 00:28:43;;;;;;;1.38;0.95;;;;;;;;;;4971106;28;59212;-70
2023/05/02 00:31:09;;;;;;;1.58;1.45;;;;;;;;;;4970975;28;59216;-71
2023/05/02 00:33:34;;;;;;;1.40;1.13;;;;;;;;;;4972462;28;59455;-71
2023/05/02 00:35:59;;;;;;;2.07;1.07;;;;;;;;;;4973648;28;59390;-70
2023/05/02 00:38:24;;;;;;;1.03;1.03;;;;;;;;;;4972528;28;59350;-72
2023/05/02 00:40:51;;;;;;;0.87;0.87;;;;;;;;;;4969394;28;59254;-71
2023/05/02 00:43:17;;;;;;;1.08;0.98;;;;;;;;;;4970552;28;59961;-71
2023/05/02 00:45:43;;;;;;;0.75;0.75;;;;;;;;;;4968603;28;59430;-71
2023/05/02 00:48:09;;;;;;;1.98;0.70;;;;;;;;;;4972978;28;59240;-71
2023/05/02 00:50:39;;;;;;;0.90;0.90;;;;;;;;;;4973548;28;58512;-71
2023/05/02 00:53:04;;;;;;;1.40;0.90;;;;;;;;;;4973105;28;59679;-72
2023/05/02 00:55:30;;;;;;;1.25;1.15;;;;;;;;;;4974660;28;59842;-71
2023/05/02 00:57:55;;;;;;;0.70;0.70;;;;;;;;;;4974922;28;59219;-71
2023/05/02 01:00:22;;;;;;;0.80;0.80;;;;;;;;;;4973735;28;58880;-66
2023/05/02 01:02:49;;;;;;;1.00;0.88;;;;;;;;;;4972955;28;59549;-71
2023/05/02 01:05:19;;;;;;;0.88;0.80;;;;;;;;;;4967389;28;59737;-70
2023/05/02 01:08:02;;;;;;;1.17;1.08;;;;;;;;;;4971732;28;59233;-71
2023/05/02 01:10:36;;;;;;;1.73;1.45;;;;;;;;;;4965770;28;59670;-66
2023/05/02 01:13:21;;;;;;;1.40;1.30;;;;;;;;;;4971447;28;59678;-69
2023/05/02 01:15:47;;;;;;;0.50;0.50;;;;;;;;;;4970046;28;60011;-70
2023/05/02 01:18:14;;;;;;;0.73;0.73;;;;;;;;;;4967190;28;62769;-72
2023/05/02 01:20:41;;;;;;;1.13;1.02;;;;;;;;;;4973880;28;60028;-69
2023/05/02 01:23:33;;;;;;;0.68;0.68;;;;;;;;;;4967584;28;59782;-71
2023/05/02 01:26:13;;;;;;;0.95;0.90;;;;;;;;;;4965123;28;59233;-71
2023/05/02 01:28:52;;;;;;;1.05;0.98;;;;;;;;;;4969131;28;59512;-71
2023/05/02 01:31:17;;;;;;;0.80;0.77;;;;;;;;;;4966038;28;59835;-72
2023/05/02 01:33:43;;;;;;;1.07;1.00;;;;;;;;;;4968313;28;59544;-71
2023/05/02 01:36:08;;;;;;;1.35;1.25;;;;;;;;;;4965621;28;59746;-70
2023/05/02 01:38:34;;;;;;;0.88;0.88;;;;;;;;;;4966380;28;59232;-70
2023/05/02 01:41:03;;;;;;;0.77;0.77;;;;;;;;;;4964826;28;59286;-71
2023/05/02 01:43:29;;;;;;;1.48;1.23;;;;;;;;;;4961485;28;60218;-71
2023/05/02 01:45:56;;;;;;;0.60;0.60;;;;;;;;;;4965333;28;59267;-71
2023/05/02 01:48:22;;;;;;;0.95;0.55;;;;;;;;;;4965176;28;59638;-71
2023/05/02 01:50:47;;;;;;;0.70;0.70;;;;;;;;;;4967556;28;59246;-69
2023/05/02 01:53:14;;;;;;;1.02;0.47;;;;;;;;;;4963162;28;59623;-70
2023/05/02 01:55:40;;;;;;;1.58;0.80;;;;;;;;;;4964153;28;60054;-71
2023/05/02 01:58:06;;;;;;;0.50;0.47;;;;;;;;;;4964670;28;59202;-71
2023/05/02 02:00:31;;;;;;;1.85;0.50;;;;;;;;;;4968416;28;59383;-71
2023/05/02 02:02:57;;;;;;;0.50;0.50;;;;;;;;;;4968215;28;59713;-72
2023/05/02 02:05:23;;;;;;;0.70;0.70;;;;;;;;;;4967871;28;58887;-71
2023/05/02 02:07:48;;;;;;;0.73;0.55;;;;;;;;;;4967281;28;59079;-71
2023/05/02 02:10:13;;;;;;;0.50;0.50;;;;;;;;;;4965312;28;59593;-70
2023/05/02 02:12:40;;;;;;;0.55;0.40;;;;;;;;;;4966520;28;59299;-71
2023/05/02 02:15:06;;;;;;;0.70;0.70;;;;;;;;;;4967672;28;59475;-71
2023/05/02 02:17:35;;;;;;;0.70;0.70;;;;;;;;;;4965004;28;59752;-72
2023/05/02 02:20:04;;;;;;;0.45;0.40;;;;;;;;;;4966090;28;59274;-71
2023/05/02 02:22:29;;;;;;;0.55;0.55;;;;;;;;;;4964893;28;60473;-70
2023/05/02 02:24:56;;;;;;;0.30;0.30;;;;;;;;;;4961058;28;59808;-70
2023/05/02 02:27:21;;;;;;;1.10;0.60;;;;;;;;;;4966104;28;59680;-70
2023/05/02 02:29:46;;;;;;;1.97;0.50;;;;;;;;;;4965849;28;59640;-66
2023/05/02 02:32:11;;;;;;;0.40;0.40;;;;;;;;;;4964505;28;59700;-69
2023/05/02 02:34:36;;;;;;;0.43;0.43;;;;;;;;;;4966916;28;60031;-72
2023/05/02 02:37:13;;;;;;;0.40;0.40;;;;;;;;;;4965451;28;60058;-70
2023/05/02 02:39:45;;;;;;;0.52;0.50;;;;;;;;;;4967499;28;59581;-67
2023/05/02 02:42:14;;;;;;;0.30;0.30;;;;;;;;;;4959970;28;59266;-71
2023/05/02 02:44:46;;;;;;;0.60;0.47;;;;;;;;;;4968147;28;59228;-69
2023/05/02 02:47:30;;;;;;;0.70;0.45;;;;;;;;;;4968467;28;59498;-71
2023/05/02 02:50:14;;;;;;;0.95;0.30;;;;;;;;;;4964950;28;59230;-71
2023/05/02 02:52:39;;;;;;;0.20;0.20;;;;;;;;;;4965690;28;59360;-71
2023/05/02 02:55:11;;;;;;;0.88;0.60;;;;;;;;;;4968801;28;59669;-71
2023/05/02 02:57:39;;;;;;;0.32;0.32;;;;;;;;;;4969410;28;59726;-71
2023/05/02 03:00:12;;;;;;;0.52;0.30;;;;;;;;;;4967508;28;59189;-71
2023/05/02 03:02:38;;;;;;;0.57;0.45;;;;;;;;;;4964327;28;59735;-69
2023/05/02 03:05:04;;;;;;;0.47;0.47;;;;;;;;;;4965904;28;59671;-70
2023/05/02 03:07:30;;;;;;;0.55;0.30;;;;;;;;;;4966323;28;58927;-71
2023/05/02 03:09:55;;;;;;;0.73;0.40;;;;;;;;;;4966685;28;59929;-71
2023/05/02 03:12:20;;;;;;;0.65;0.43;;;;;;;;;;4966718;28;59473;-71
2023/05/02 03:14:45;;;;;;;0.40;0.40;;;;;;;;;;4967010;28;59672;-71
2023/05/02 03:17:11;;;;;;;0.87;0.40;;;;;;;;;;4963964;28;60068;-70
2023/05/02 03:19:36;;;;;;;0.73;0.53;;;;;;;;;;4967476;28;59482;-71
2023/05/02 03:22:01;;;;;;;0.40;0.40;;;;;;;;;;4969299;28;60265;-69
2023/05/02 03:24:26;;;;;;;0.52;0.38;;;;;;;;;;4967530;28;59547;-71
2023/05/02 03:26:55;;;;;;;0.40;0.40;;;;;;;;;;4970898;28;59767;-70
2023/05/02 03:29:21;;;;;;;0.40;0.40;;;;;;;;;;4970867;28;59275;-71
2023/05/02 03:31:46;;;;;;;1.38;0.70;;;;;;;;;;4964173;28;59941;-72
2023/05/02 03:34:11;;;;;;;0.40;0.40;;;;;;;;;;4968851;28;59219;-70
2023/05/02 03:36:36;;;;;;;0.30;0.30;;;;;;;;;;4969775;28;59648;-71
2023/05/02 03:39:01;;;;;;;0.73;0.63;;;;;;;;;;4967176;28;59924;-71
2023/05/02 03:41:27;;;;;;;1.10;0.50;;;;;;;;;;4971153;28;59583;-72
2023/05/02 03:43:52;;;;;;;0.20;0.20;;;;;;;;;;4969070;28;59323;-71
2023/05/02 03:46:17;;;;;;;0.35;0.35;;;;;;;;;;4973186;28;59636;-70
2023/05/02 03:48:45;;;;;;;0.27;0.27;;;;;;;;;;4978344;28;59353;-69
2023/05/02 03:51:10;;;;;;;0.53;0.33;;;;;;;;;;4977346;28;59695;-72
2023/05/02 03:53:36;;;;;;;1.13;0.40;;;;;;;;;;4975299;28;59592;-70
2023/05/02 03:56:01;;;;;;;0.57;0.55;;;;;;;;;;4973160;28;59679;-71
2023/05/02 03:58:26;;;;;;;0.30;0.30;;;;;;;;;;4976488;28;60063;-71
2023/05/02 04:00:52;;;;;;;0.27;0.27;;;;;;;;;;4974861;28;59571;-70
2023/05/02 04:03:17;;;;;;;0.60;0.60;;;;;;;;;;4978053;28;59429;-70
2023/05/02 04:05:43;;;;;;;0.73;0.40;;;;;;;;;;4967975;28;60322;-72
2023/05/02 04:08:09;;;;;;;0.30;0.30;;;;;;;;;;4975542;28;59631;-71
2023/05/02 04:10:34;;;;;;;0.65;0.47;;;;;;;;;;4974068;28;59279;-72
2023/05/02 04:13:01;;;;;;;0.65;0.65;;;;;;;;;;4969648;28;59890;-71
2023/05/02 04:15:27;;;;;;;0.63;0.60;;;;;;;;;;4969921;28;59609;-71
2023/05/02 04:17:52;;;;;;;1.13;0.70;;;;;;;;;;4971582;28;58605;-71
2023/05/02 04:20:17;;;;;;;0.20;0.20;;;;;;;;;;4974971;28;59676;-70
2023/05/02 04:22:42;;;;;;;0.23;0.23;;;;;;;;;;4970949;28;59270;-71
2023/05/02 04:25:08;;;;;;;1.20;0.90;;;;;;;;;;4971733;28;59602;-71
2023/05/02 04:27:33;;;;;;;0.77;0.60;;;;;;;;;;4974132;28;59378;-72
2023/05/02 04:29:58;;;;;;;0.47;0.30;;;;;;;;;;4972163;28;59351;-71
2023/05/02 04:32:23;;;;;;;1.60;0.30;;;;;;;;;;4975579;28;59578;-71
2023/05/02 04:34:49;;;;;;;1.27;0.30;;;;;;;;;;4974065;28;59391;-71
2023/05/02 04:37:14;;;;;;;0.45;0.38;;;;;;;;;;4969566;28;59519;-71
2023/05/02 04:39:39;;;;;;;0.73;0.50;;;;;;;;;;4971213;28;59633;-71
2023/05/02 04:42:05;;;;;;;1.07;0.57;;;;;;;;;;4977388;28;58781;-71
2023/05/02 04:44:30;;;;;;;2.40;0.60;;;;;;;;;;4972790;28;59551;-71
2023/05/02 04:46:55;;;;;;;1.33;0.83;;;;;;;;;;4971255;28;59443;-72
2023/05/02 04:49:20;;;;;;;2.63;0.77;;;;;;;;;;4978118;28;58777;-72
2023/05/02 04:51:45;;;;;;;4.20;0.63;;;;;;;;;;4978508;28;59279;-70
2023/05/02 04:54:11;;;;;;;7.28;1.77;;;;;;;;;;4970757;28;59192;-72
2023/05/02 04:56:36;;;;;;;12.32;2.75;;;;;;;;;;4970294;28;59099;-71
2023/05/02 04:59:01;;;;;;;6.43;2.50;;;;;;;;;;4969297;28;59297;-71
2023/05/02 05:01:27;;;;;;;6.68;1.60;;;;;;;;;;4980807;28;59702;-73
2023/05/02 05:03:52;;;;;;;8.83;2.47;;;;;;;;;;4978981;28;59293;-72
2023/05/02 05:06:18;;;;;;;5.13;2.13;;;;;;;;;;4978442;28;59226;-72
2023/05/02 05:08:44;;;;;;;7.45;1.52;;;;;;;;;;4974383;28;59233;-71
2023/05/02 05:11:09;;;;;;;9.63;1.50;;;;;;;;;;4977396;28;59721;-71
2023/05/02 05:13:34;;;;;;;5.07;2.43;;;;;;;;;;4980029;28;60150;-72
2023/05/02 05:16:00;;;;;;;3.23;1.20;;;;;;;;;;4981605;28;59463;-71
2023/05/02 05:18:26;;;;;;;4.30;1.65;;;;;;;;;;4982038;28;59243;-71
2023/05/02 05:20:51;;;;;;;5.30;2.33;;;;;;;;;;4977145;28;60970;-72
2023/05/02 05:23:16;;;;;;;5.60;1.73;;;;;;;;;;4982134;28;59605;-71
2023/05/02 05:25:41;;;;;;;3.93;1.70;;;;;;;;;;4978124;28;59272;-72
2023/05/02 05:28:06;;;;;;;3.27;1.50;;;;;;;;;;4982223;28;60085;-72
2023/05/02 05:30:31;;;;;;;2.60;1.13;;;;;;;;;;4979764;28;59342;-71
2023/05/02 05:32:57;;;;;;;3.33;1.30;;;;;;;;;;4979247;28;59313;-71
2023/05/02 05:35:23;;;;;;;2.97;1.70;;;;;;;;;;4979187;28;59517;-72
2023/05/02 05:37:48;;;;;;;5.13;1.67;;;;;;;;;;4978132;28;59187;-71
2023/05/02 05:40:13;;;;;;;3.92;3.15;;;;;;;;;;4979824;28;59619;-72
2023/05/02 05:42:38;;;;;;;3.57;1.27;;;;;;;;;;4980851;28;59810;-72
2023/05/02 05:45:03;;;;;;;5.63;1.50;;;;;;;;;;4976867;28;59201;-68
2023/05/02 05:47:29;;;;;;;4.47;0.67;;;;;;;;;;4980230;28;58854;-69
2023/05/02 05:49:54;;;;;;;1.67;1.35;;;;;;;;;;4979808;28;59246;-72
2023/05/02 05:52:20;;;;;;;1.35;0.90;;;;;;;;;;4975530;28;59875;-72
2023/05/02 05:54:45;;;;;;;2.15;1.13;;;;;;;;;;4976838;28;59320;-72
2023/05/02 05:57:10;;;;;;;1.93;1.00;;;;;;;;;;4980347;28;59978;-70
2023/05/02 05:59:35;;;;;;;1.77;1.07;;;;;;;;;;4978461;28;59648;-70
2023/05/02 06:02:01;;;;;;;1.40;0.80;;;;;;;;;;4981022;28;59508;-72
2023/05/02 06:04:26;;;;;;;3.70;1.30;;;;;;;;;;4981360;28;59548;-72
2023/05/02 06:06:52;;;;;;;2.93;1.00;;;;;;;;;;4978619;28;59450;-72
2023/05/02 06:09:18;;;;;;;1.67;0.77;;;;;;;;;;4983525;28;59610;-70
2023/05/02 06:11:43;;;;;;;2.42;0.98;;;;;;;;;;4976447;28;59676;-72
2023/05/02 06:14:08;;;;;;;3.50;2.13;;;;;;;;;;4983006;28;59270;-71
2023/05/02 06:16:33;;;;;;;2.67;0.97;;;;;;;;;;4982684;28;59431;-73
2023/05/02 06:18:58;;;;;;;2.78;1.33;;;;;;;;;;4982475;28;59219;-72
2023/05/02 06:21:23;;;;;;;2.05;1.20;;;;;;;;;;4983831;28;58500;-70
2023/05/02 06:23:48;;;;;;;3.92;1.85;;;;;;;;;;4994986;28;59106;-72
2023/05/02 06:26:14;;;;;;;2.55;1.33;;;;;;;;;;4979176;28;59326;-72
2023/05/02 06:28:39;;;;;;;4.17;1.20;;;;;;;;;;4977663;28;59765;-70
2023/05/02 06:31:04;;;;;;;1.93;0.97;;;;;;;;;;4982021;28;59214;-73
2023/05/02 06:33:30;;;;;;;2.47;0.80;;;;;;;;;;4980265;28;59201;-71
2023/05/02 06:35:55;;;;;;;1.27;1.00;;;;;;;;;;4977948;28;59394;-71
2023/05/02 06:38:21;;;;;;;10.65;1.67;;;;;;;;;;4978024;28;58675;-72
2023/05/02 06:40:46;;;;;;;3.17;1.45;;;;;;;;;;4976101;28;59312;-72
2023/05/02 06:43:12;;;;;;;3.03;0.98;;;;;;;;;;4982556;28;59463;-70
2023/05/02 06:45:37;;;;;;;2.60;0.82;;;;;;;;;;4980464;28;59780;-72
2023/05/02 06:48:02;;;;;;;1.27;0.60;;;;;;;;;;4977275;28;59130;-72
2023/05/02 06:50:28;;;;;;;1.93;0.77;;;;;;;;;;4979641;28;59391;-70
2023/05/02 06:52:53;;;;;;;1.48;1.23;;;;;;;;;;4980787;28;60254;-72
2023/05/02 06:55:18;;;;;;;1.48;0.90;;;;;;;;;;4976942;28;59464;-72
2023/05/02 06:57:43;;;;;;;0.98;0.75;;;;;;;;;;4980149;28;60223;-71
2023/05/02 07:00:09;;;;;;;2.27;0.70;;;;;;;;;;4974475;28;59596;-72
2023/05/02 07:02:34;;;;;;;1.77;1.00;;;;;;;;;;4976592;28;59308;-72
2023/05/02 07:04:59;;;;;;;0.93;0.80;;;;;;;;;;4976506;28;59157;-72
2023/05/02 07:07:24;;;;;;;1.95;1.15;;;;;;;;;;4976092;28;59214;-72
2023/05/02 07:09:50;;;;;;;0.70;0.60;;;;;;;;;;4980211;28;59232;-71
2023/05/02 07:12:15;;;;;;;2.25;1.25;;;;;;;;;;4978354;28;58990;-72
2023/05/02 07:14:40;;;;;;;1.83;1.15;;;;;;;;;;4976862;28;59217;-72
2023/05/02 07:17:05;;;;;;;2.37;1.07;;;;;;;;;;4983407;28;59839;-72
2023/05/02 07:19:30;;;;;;;1.87;0.97;;;;;;;;;;4980231;28;59398;-72
2023/05/02 07:21:55;;;;;;;1.58;0.85;;;;;;;;;;4982021;28;59491;-71
2023/05/02 07:24:20;;;;;;;1.40;0.83;;;;;;;;;;4982930;28;59193;-72
2023/05/02 07:26:46;;;;;;;0.95;0.60;;;;;;;;;;4981748;28;59031;-71
2023/05/02 07:29:11;;;;;;;1.00;0.53;;;;;;;;;;4979575;28;59487;-72
2023/05/02 07:31:36;;;;;;;1.58;0.82;;;;;;;;;;4985537;28;59669;-72
2023/05/02 07:34:01;;;;;;;1.42;0.65;;;;;;;;;;4980238;28;59300;-71
2023/05/02 07:36:26;;;;;;;2.27;0.60;;;;;;;;;;4984612;28;59294;-71
2023/05/02 07:38:52;;;;;;;1.77;0.70;;;;;;;;;;4978572;28;59226;-72
2023/05/02 07:41:17;;;;;;;1.67;0.60;;;;;;;;;;4981828;28;59100;-71
2023/05/02 07:43:42;;;;;;;2.22;1.13;;;;;;;;;;4978578;28;59621;-71
2023/05/02 07:46:07;;;;;;;1.10;0.75;;;;;;;;;;4976890;28;59795;-72
2023/05/02 07:48:33;;;;;;;3.00;0.70;;;;;;;;;;4984057;28;59470;-72
2023/05/02 07:51:05;;;;;;;1.20;0.80;;;;;;;;;;4979392;28;59234;-70
2023/05/02 07:53:30;;;;;;;0.77;0.65;;;;;;;;;;4983870;28;59422;-72
2023/05/02 07:55:55;;;;;;;0.63;0.50;;;;;;;;;;4983789;28;59580;-72
2023/05/02 07:58:20;;;;;;;1.03;0.93;;;;;;;;;;4980731;28;60941;-72
2023/05/02 08:00:45;;;;;;;1.83;1.27;;;;;;;;;;4980550;28;59248;-71
2023/05/02 08:03:10;;;;;;;1.50;0.70;;;;;;;;;;4976764;28;59625;-72
2023/05/02 08:05:36;;;;;;;0.93;0.50;;;;;;;;;;4978732;28;59224;-71
2023/05/02 08:08:01;;;;;;;1.75;0.60;;;;;;;;;;4982392;28;59443;-72
2023/05/02 08:10:27;;;;;;;2.00;0.80;;;;;;;;;;4982111;28;59352;-68
2023/05/02 08:12:52;;;;;;;1.30;1.00;;;;;;;;;;4983312;28;59202;-72
2023/05/02 08:15:17;;;;;;;3.40;0.85;;;;;;;;;;4982309;28;59252;-70
2023/05/02 08:17:43;;;;;;;2.13;0.93;;;;;;;;;;4982648;28;59194;-72
2023/05/02 08:20:08;;;;;;;0.67;0.67;;;;;;;;;;4985425;28;59313;-70
2023/05/02 08:22:33;;;;;;;1.15;0.80;;;;;;;;;;4983757;28;59679;-72
2023/05/02 08:24:58;;;;;;;2.35;0.80;;;;;;;;;;4980849;28;59461;-72
2023/05/02 08:27:23;;;;;;;1.30;0.65;;;;;;;;;;4984963;28;59204;-70
2023/05/02 08:29:48;;;;;;;0.85;0.70;;;;;;;;;;4981941;28;59810;-72
2023/05/02 08:32:14;;;;;;;2.92;0.93;;;;;;;;;;4979919;28;59425;-71
2023/05/02 08:34:39;;;;;;;3.08;0.70;;;;;;;;;;4979438;28;59487;-71
2023/05/02 08:37:08;;;;;;;0.70;0.70;;;;;;;;;;4983764;28;60786;-69
2023/05/02 08:39:33;;;;;;;1.50;0.85;;;;;;;;;;4983918;28;59243;-72
2023/05/02 08:41:58;;;;;;;0.90;0.70;;;;;;;;;;4981861;28;60331;-71
2023/05/02 08:44:24;;;;;;;0.90;0.63;;;;;;;;;;4981824;28;59945;-72
2023/05/02 08:46:49;;;;;;;1.48;0.60;;;;;;;;;;4978455;28;59304;-72
2023/05/02 08:49:15;;;;;;;0.80;0.63;;;;;;;;;;4981531;28;59374;-72
2023/05/02 08:51:41;;;;;;;0.65;0.65;;;;;;;;;;4977205;28;59465;-72
2023/05/02 08:54:08;;;;;;;0.80;0.50;;;;;;;;;;4979117;28;59567;-71
2023/05/02 08:56:33;;;;;;;1.38;0.63;;;;;;;;;;4984259;28;59529;-72
2023/05/02 08:58:58;;;;;;;0.50;0.40;;;;;;;;;;4978064;28;59704;-72
2023/05/02 09:01:26;;;;;;;0.73;0.70;;;;;;;;;;4986064;28;59598;-71
2023/05/02 09:03:53;;;;;;;;;;;;;;;;;;4981471;28;59736;-72
2023/05/02 09:06:19;;;;;;;0.88;0.88;;;;;;;;;;4982136;28;59647;-71
2023/05/02 09:08:48;;;;;;;0.50;0.50;;;;;;;;;;4982733;28;59699;-71
2023/05/02 09:11:14;;;;;;;0.50;0.50;;;;;;;;;;4978297;28;59572;-71
2023/05/02 09:13:40;;;;;;;0.73;0.40;;;;;;;;;;4983382;28;59271;-72
2023/05/02 09:16:05;;;;;;;0.98;0.47;;;;;;;;;;4979861;28;59533;-71
2023/05/02 09:18:32;;;;;;;0.52;0.52;;;;;;;;;;4980107;28;59544;-71
2023/05/02 09:20:58;;;;;;;1.00;0.70;;;;;;;;;;4977322;28;59698;-72
2023/05/02 09:23:33;;;;;;;1.33;0.47;;;;;;;;;;4981616;28;60921;-72
2023/05/02 09:25:58;;;;;;;1.10;0.75;;;;;;;;;;4981013;28;59579;-72
2023/05/02 09:28:37;;;;;;;0.60;0.60;;;;;;;;;;4979409;28;59676;-72
2023/05/02 09:31:06;;;;;;;1.02;0.52;;;;;;;;;;4982055;28;58555;-72
2023/05/02 09:33:32;;;;;;;0.88;0.52;;;;;;;;;;4978184;28;59350;-69
2023/05/02 09:35:57;;;;;;;1.05;0.28;;;;;;;;;;4978972;28;59160;-72
2023/05/02 09:38:23;;;;;;;1.30;0.50;;;;;;;;;;4977745;28;59652;-72
2023/05/02 09:40:55;;;;;;;0.63;0.57;;;;;;;;;;4982006;28;59477;-72
2023/05/02 09:43:20;;;;;;;0.40;0.40;;;;;;;;;;4977387;28;59546;-72
2023/05/02 09:45:55;;;;;;;1.10;0.93;;;;;;;;;;4980120;28;59502;-71
2023/05/02 09:48:20;;;;;;;0.50;0.50;;;;;;;;;;4982799;28;62402;-72
2023/05/02 09:50:45;;;;;;;1.25;0.45;;;;;;;;;;4974782;28;59404;-71
2023/05/02 09:53:10;;;;;;;0.70;0.50;;;;;;;;;;4980706;28;59232;-68
2023/05/02 09:55:36;;;;;;;0.83;0.40;;;;;;;;;;4979391;28;59816;-71
2023/05/02 09:58:01;;;;;;;0.50;0.47;;;;;;;;;;4982252;28;59763;-70
2023/05/02 10:00:42;;;;;;;0.90;0.90;;;;;;;;;;4980491;28;59506;-71
2023/05/02 10:03:14;;;;;;;0.80;0.50;;;;;;;;;;4981042;28;60067;-72
2023/05/02 10:05:39;;;;;;;1.42;0.63;;;;;;;;;;4980974;28;59313;-70
2023/05/02 10:08:06;;;;;;;0.88;0.75;;;;;;;;;;4979233;28;59225;-72
2023/05/02 10:10:31;;;;;;;0.32;0.28;;;;;;;;;;4974615;28;59271;-68
2023/05/02 10:12:57;;;;;;;1.00;0.43;;;;;;;;;;4978896;28;59165;-72
2023/05/02 10:15:24;;;;;;;0.98;0.32;;;;;;;;;;4980061;28;59198;-72
2023/05/02 10:17:50;;;;;;;0.63;0.60;;;;;;;;;;4979095;28;59650;-72
2023/05/02 10:20:21;;;;;;;1.05;0.30;;;;;;;;;;4982502;28;59466;-72
2023/05/02 10:22:48;;;;;;;0.50;0.50;;;;;;;;;;4977356;28;59917;-72
2023/05/02 10:25:13;;;;;;;0.52;0.40;;;;;;;;;;4981444;28;59336;-72
2023/05/02 10:27:38;;;;;;;0.97;0.50;;;;;;;;;;4981173;28;59203;-72
2023/05/02 10:30:05;;;;;;;0.50;0.50;;;;;;;;;;4976583;28;59340;-70
2023/05/02 10:32:31;;;;;;;0.70;0.70;;;;;;;;;;4979412;28;59700;-72
2023/05/02 10:35:01;;;;;;;0.55;0.55;;;;;;;;;;4976929;28;59718;-70
2023/05/02 10:37:26;;;;;;;0.93;0.63;;;;;;;;;;4980498;28;59226;-72
2023/05/02 10:39:52;;;;;;;1.27;1.20;;;;;;;;;;4977594;28;59143;-71
2023/05/02 10:42:18;;;;;;;1.17;0.80;;;;;;;;;;4984167;28;59694;-72
2023/05/02 10:44:44;;;;;;;0.98;0.50;;;;;;;;;;4976846;28;59201;-71
2023/05/02 10:47:22;;;;;;;2.43;0.77;;;;;;;;;;4982007;28;59366;-72
2023/05/02 10:50:00;;;;;;;0.75;0.60;;;;;;;;;;4982546;28;59284;-72
2023/05/02 10:52:30;;;;;;;0.60;0.38;;;;;;;;;;4978749;28;59051;-70
2023/05/02 10:55:14;;;;;;;0.77;0.52;;;;;;;;;;4980933;28;59506;-71
2023/05/02 10:57:58;;;;;;;0.32;0.30;;;;;;;;;;4980292;28;59247;-71
2023/05/02 11:00:24;;;;;;;1.38;0.20;;;;;;;;;;4979568;28;59190;-71
2023/05/02 11:02:50;;;;;;;0.25;0.25;;;;;;;;;;4977560;28;59673;-72
2023/05/02 11:05:15;;;;;;;0.60;0.30;;;;;;;;;;4975189;28;59644;-72
2023/05/02 11:07:41;;;;;;;0.55;0.55;;;;;;;;;;4978270;28;59126;-72
2023/05/02 11:10:15;;;;;;;0.22;0.20;;;;;;;;;;4980702;28;59681;-72
2023/05/02 11:12:45;;;;;;;0.45;0.40;;;;;;;;;;4977455;28;59455;-71
2023/05/02 11:15:10;;;;;;;0.70;0.40;;;;;;;;;;4979844;28;59268;-69
2023/05/02 11:17:54;;;;;;;0.40;0.23;;;;;;;;;;4979421;28;59313;-72
2023/05/02 11:20:19;;;;;;;0.63;0.63;;;;;;;;;;4978964;28;60094;-72
2023/05/02 11:22:45;;;;;;;0.67;0.37;;;;;;;;;;4980912;28;59699;-72
2023/05/02 11:25:27;;;;;;;0.50;0.40;;;;;;;;;;4992882;28;59773;-72
2023/05/02 11:27:52;;;;;;;0.55;0.50;;;;;;;;;;4979647;28;59612;-72
2023/05/02 11:30:35;;;;;;;0.53;0.53;;;;;;;;;;4979619;28;59836;-71
2023/05/02 11:33:03;;;;;;;0.32;0.20;;;;;;;;;;4976596;28;59287;-71
2023/05/02 11:35:31;;;;;;;0.35;0.35;;;;;;;;;;4979945;28;59193;-71
2023/05/02 11:37:57;;;;;;;0.40;0.40;;;;;;;;;;4978632;28;59343;-72
2023/05/02 11:40:22;;;;;;;0.47;0.47;;;;;;;;;;4975271;28;59545;-72
2023/05/02 11:42:47;;;;;;;0.70;0.45;;;;;;;;;;4976599;28;59219;-72
2023/05/02 11:45:13;;;;;;;0.80;0.40;;;;;;;;;;4976076;28;59514;-72
2023/05/02 11:47:38;;;;;;;0.60;0.40;;;;;;;;;;4975907;28;59707;-71
2023/05/02 11:50:04;;;;;;;0.40;0.20;;;;;;;;;;4978966;28;59457;-72
2023/05/02 11:52:30;;;;;;;0.43;0.43;;;;;;;;;;4977990;28;59508;-68
2023/05/02 11:54:56;;;;;;;0.40;0.40;;;;;;;;;;4979867;28;59481;-71
2023/05/02 11:57:21;;;;;;;0.38;0.38;;;;;;;;;;4982602;28;58908;-72
2023/05/02 11:59:51;;;;;;;0.60;0.32;;;;;;;;;;4974779;28;59699;-72
2023/05/02 12:02:16;;;;;;;0.45;0.20;;;;;;;;;;4979932;28;59776;-72
2023/05/02 12:04:42;;;;;;;0.30;0.20;;;;;;;;;;4978845;28;59554;-72
2023/05/02 12:07:08;;;;;;;0.40;0.30;;;;;;;;;;4969032;28;59696;-71
2023/05/02 12:09:33;;;;;;;0.57;0.30;;;;;;;;;;4980429;28;59828;-72
2023/05/02 12:11:58;;;;;;;2.22;0.50;;;;;;;;;;4978354;28;59269;-71
2023/05/02 12:14:27;;;;;;;0.65;0.50;;;;;;;;;;4980007;28;59634;-72
2023/05/02 12:16:52;;;;;;;1.70;0.63;;;;;;;;;;4971936;28;59600;-70
2023/05/02 12:19:18;;;;;;;0.88;0.63;;;;;;;;;;4976713;28;59739;-69
2023/05/02 12:21:43;;;;;;;0.50;0.50;;;;;;;;;;4975701;28;59907;-68
2023/05/02 12:24:09;;;;;;;3.10;0.20;;;;;;;;;;4973591;28;59475;-68
2023/05/02 12:26:34;;;;;;;1.05;0.38;;;;;;;;;;4980696;28;59147;-70
2023/05/02 12:29:01;;;;;;;0.40;0.40;;;;;;;;;;4978961;28;59667;-73
2023/05/02 12:31:27;;;;;;;3.25;0.68;;;;;;;;;;4978472;28;60039;-73
2023/05/02 12:33:56;;;;;;;1.60;0.40;;;;;;;;;;4976722;28;59664;-71
2023/05/02 12:36:21;;;;;;;0.43;0.30;;;;;;;;;;4977186;28;59520;-69
2023/05/02 12:38:51;;;;;;;0.70;0.52;;;;;;;;;;4972263;28;59285;-67
2023/05/02 12:41:17;;;;;;;1.10;0.22;;;;;;;;;;4977900;28;59841;-70
2023/05/02 12:43:46;;;;;;;2.10;0.30;;;;;;;;;;4975296;28;59495;-74
2023/05/02 12:46:11;;;;;;;0.70;0.30;;;;;;;;;;4979429;28;59641;-72
2023/05/02 12:48:36;;;;;;;1.70;0.50;;;;;;;;;;4972980;28;59653;-66
2023/05/02 12:51:01;;;;;;;1.60;0.47;;;;;;;;;;4969330;28;59850;-72
2023/05/02 12:53:43;;;;;;;3.17;1.07;;;;;;;;;;4973810;28;59190;-72
2023/05/02 12:56:09;;;;;;;1.10;0.55;;;;;;;;;;4977185;28;60948;-71
2023/05/02 12:58:46;;;;;;;0.88;0.65;;;;;;;;;;4968954;28;59617;-76
2023/05/02 13:01:15;;;;;;;2.85;0.85;;;;;;;;;;4981332;28;59461;-77
2023/05/02 13:03:41;;;;;;;0.47;0.30;;;;;;;;;;4973015;28;59193;-74
2023/05/02 13:06:06;;;;;;;1.15;0.40;;;;;;;;;;4976653;28;59527;-70
2023/05/02 13:08:32;;;;;;;1.87;0.40;;;;;;;;;;4973886;28;59877;-69
2023/05/02 13:10:57;;;;;;;1.67;0.40;;;;;;;;;;4972617;28;59359;-70
2023/05/02 13:13:22;;;;;;;0.87;0.60;;;;;;;;;;4976066;28;59235;-72
2023/05/02 13:15:48;;;;;;;1.90;0.60;;;;;;;;;;4982475;28;59594;-69
2023/05/02 13:18:13;;;;;;;3.17;0.65;;;;;;;;;;4979167;28;59602;-72
2023/05/02 13:20:38;;;;;;;0.40;0.10;;;;;;;;;;4974445;28;59692;-71
2023/05/02 13:23:03;;;;;;;5.28;1.40;;;;;;;;;;4973166;28;59718;-72
2023/05/02 13:25:29;;;;;;;1.85;0.57;;;;;;;;;;4980687;28;59334;-72
2023/05/02 13:27:54;;;;;;;1.20;0.67;;;;;;;;;;4975729;28;59645;-70
2023/05/02 13:30:19;;;;;;;0.63;0.20;;;;;;;;;;4969129;28;60247;-70
2023/05/02 13:32:45;;;;;;;3.27;0.60;;;;;;;;;;4971102;28;59558;-70
2023/05/02 13:35:12;;;;;;;1.08;0.30;;;;;;;;;;4975982;28;59693;-71
2023/05/02 13:37:38;;;;;;;0.35;0.20;;;;;;;;;;4969340;28;59842;-71
2023/05/02 13:40:03;;;;;;;0.77;0.30;;;;;;;;;;4973155;28;59213;-71
2023/05/02 13:42:28;;;;;;;0.30;0.10;;;;;;;;;;4976086;28;59230;-72
2023/05/02 13:44:54;;;;;;;0.73;0.73;;;;;;;;;;4975428;28;59606;-70
2023/05/02 13:47:20;;;;;;;0.93;0.40;;;;;;;;;;4975168;28;59481;-71
2023/05/02 13:49:45;;;;;;;0.98;0.30;;;;;;;;;;4978997;28;59625;-72
2023/05/02 13:52:10;;;;;;;0.67;0.57;;;;;;;;;;4975032;28;59343;-72
2023/05/02 13:54:35;;;;;;;2.80;0.97;;;;;;;;;;4972001;28;60604;-71
2023/05/02 13:57:01;;;;;;;3.17;0.50;;;;;;;;;;4979519;28;59441;-72
2023/05/02 13:59:26;;;;;;;5.55;0.50;;;;;;;;;;4978399;28;58891;-72
2023/05/02 14:01:51;;;;;;;0.70;0.20;;;;;;;;;;4979087;28;59166;-72
2023/05/02 14:04:17;;;;;;;1.27;0.30;;;;;;;;;;4982414;28;59307;-72
2023/05/02 14:06:42;;;;;;;0.47;0.37;;;;;;;;;;4982236;28;59069;-72
2023/05/02 14:09:07;;;;;;;4.25;0.50;;;;;;;;;;4976354;28;59662;-72
2023/05/02 14:11:32;;;;;;;1.60;0.63;;;;;;;;;;4982236;28;59343;-72
2023/05/02 14:13:58;;;;;;;3.53;0.43;;;;;;;;;;4994717;28;59906;-72
2023/05/02 14:16:23;;;;;;;1.52;0.38;;;;;;;;;;4982267;28;59340;-71
2023/05/02 14:18:49;;;;;;;1.33;0.50;;;;;;;;;;4980287;28;59222;-72
2023/05/02 14:21:14;;;;;;;3.88;0.82;;;;;;;;;;4984472;28;59042;-72
2023/05/02 14:23:39;;;;;;;2.55;0.82;;;;;;;;;;4980188;28;59485;-72
2023/05/02 14:26:04;;;;;;;0.80;0.40;;;;;;;;;;4978680;28;59392;-72
2023/05/02 14:28:30;;;;;;;1.02;0.25;;;;;;;;;;4977205;28;59647;-67
2023/05/02 14:30:55;;;;;;;1.27;0.50;;;;;;;;;;4980779;28;59176;-72
2023/05/02 14:33:20;;;;;;;4.40;0.63;;;;;;;;;;4982105;28;59398;-72
2023/05/02 14:35:45;;;;;;;1.93;0.80;;;;;;;;;;4976964;28;59262;-72
2023/05/02 14:38:10;;;;;;;1.33;0.70;;;;;;;;;;4977194;28;59124;-72
2023/05/02 14:40:36;;;;;;;0.80;0.40;;;;;;;;;;4977394;28;59263;-72